createdAt,value
2018-03-23T00:00:38.196Z,3.66
2018-03-23T00:03:05.664Z,3.73
2018-03-23T00:05:33.108Z,3.77
2018-03-23T00:08:00.569Z,3.72
2018-03-23T00:10:28.941Z,3.64
2018-03-23T00:12:56.496Z,3.66
2018-03-23T00:15:23.949Z,3.62
2018-03-23T00:17:51.405Z,3.53
2018-03-23T00:20:20.788Z,3.55
2018-03-23T00:22:51.809Z,3.62
2018-03-23T00:25:19.249Z,3.58
2018-03-23T00:27:46.713Z,3.47
2018-03-23T00:30:14.152Z,3.45
2018-03-23T00:32:41.626Z,3.48
2018-03-23T00:35:09.081Z,3.51
2018-03-23T00:37:36.604Z,3.48
2018-03-23T00:40:04.059Z,3.30
2018-03-23T00:42:31.521Z,3.35
2018-03-23T00:44:58.978Z,3.27
2018-03-23T00:47:26.454Z,3.32
2018-03-23T00:49:53.918Z,3.47
2018-03-23T00:52:21.381Z,3.50
2018-03-23T00:54:48.833Z,3.39
2018-03-23T00:57:16.300Z,3.35
2018-03-23T00:59:43.753Z,3.28
2018-03-23T01:02:11.218Z,3.38
2018-03-23T01:04:38.722Z,3.47
2018-03-23T01:07:06.190Z,3.33
2018-03-23T01:09:33.757Z,3.27
2018-03-23T01:12:01.217Z,3.14
2018-03-23T01:14:28.671Z,3.03
2018-03-23T01:16:56.211Z,2.93
2018-03-23T01:19:23.656Z,3.14
2018-03-23T01:21:52.022Z,3.42
2018-03-23T01:24:19.485Z,3.17
2018-03-23T01:26:46.927Z,3.11
2018-03-23T01:29:14.389Z,2.96
2018-03-23T01:31:41.837Z,2.97
2018-03-23T01:34:09.296Z,3.24
2018-03-23T01:36:37.702Z,3.01
2018-03-23T01:39:06.197Z,2.89
2018-03-23T01:41:33.653Z,2.99
2018-03-23T01:44:02.131Z,3.31
2018-03-23T01:46:29.577Z,3.40
2018-03-23T01:48:57.044Z,3.25
2018-03-23T01:51:24.504Z,3.17
2018-03-23T01:53:51.962Z,3.04
2018-03-23T01:56:19.409Z,3.01
2018-03-23T01:58:46.883Z,2.98
2018-03-23T02:01:14.334Z,3.13
2018-03-23T02:03:42.794Z,3.25
2018-03-23T02:06:10.246Z,3.34
2018-03-23T02:08:38.616Z,3.31
2018-03-23T02:11:06.108Z,3.32
2018-03-23T02:13:33.549Z,3.32
2018-03-23T02:16:00.989Z,3.13
2018-03-23T02:18:28.465Z,3.22
2018-03-23T02:20:55.907Z,2.97
2018-03-23T02:23:23.365Z,3.18
2018-03-23T02:25:50.832Z,3.26
2018-03-23T02:28:18.298Z,3.12
2018-03-23T02:30:45.741Z,3.34
2018-03-23T02:33:13.201Z,3.22
2018-03-23T02:35:40.661Z,3.04
2018-03-23T02:38:09.144Z,3.19
2018-03-23T02:40:36.586Z,3.38
2018-03-23T02:43:04.066Z,3.22
2018-03-23T02:45:31.505Z,3.19
2018-03-23T02:47:58.970Z,3.17
2018-03-23T02:50:26.413Z,3.42
2018-03-23T02:52:54.889Z,3.54
2018-03-23T02:55:22.339Z,3.37
2018-03-23T02:57:49.809Z,3.14
2018-03-23T03:00:17.266Z,3.13
2018-03-23T03:02:44.741Z,3.32
2018-03-23T03:05:13.177Z,3.40
2018-03-23T03:07:40.673Z,3.37
2018-03-23T03:10:08.138Z,3.40
2018-03-23T03:12:35.685Z,3.35
2018-03-23T03:15:03.125Z,3.27
2018-03-23T03:17:30.576Z,3.36
2018-03-23T03:19:58.022Z,3.61
2018-03-23T03:22:25.490Z,3.33
2018-03-23T03:24:52.976Z,3.01
2018-03-23T03:27:20.429Z,3.00
2018-03-23T03:29:47.893Z,3.12
2018-03-23T03:32:15.349Z,3.01
2018-03-23T03:34:42.791Z,2.90
2018-03-23T03:37:10.253Z,2.95
2018-03-23T03:39:37.699Z,3.31
2018-03-23T03:42:05.185Z,3.32
2018-03-23T03:44:32.625Z,3.27
2018-03-23T03:47:01.072Z,3.38
2018-03-23T03:49:28.528Z,3.61
2018-03-23T03:51:55.984Z,3.47
2018-03-23T03:54:23.440Z,3.77
2018-03-23T03:56:50.942Z,3.41
2018-03-23T03:59:24.313Z,3.25
2018-03-23T04:01:51.749Z,3.29
2018-03-23T04:04:19.257Z,3.94
2018-03-23T04:06:46.709Z,3.69
2018-03-23T04:09:14.160Z,3.35
2018-03-23T04:11:41.610Z,3.42
2018-03-23T04:14:09.185Z,3.35
2018-03-23T04:16:36.641Z,3.37
2018-03-23T04:19:04.105Z,3.38
2018-03-23T04:21:31.551Z,3.09
2018-03-23T04:23:59.018Z,3.35
2018-03-23T04:26:26.473Z,3.22
2018-03-23T04:28:53.937Z,3.13
2018-03-23T04:31:21.386Z,3.02
2018-03-23T04:33:48.884Z,3.06
2018-03-23T04:36:16.333Z,3.42
2018-03-23T04:38:43.845Z,3.33
2018-03-23T04:41:11.289Z,3.20
2018-03-23T04:43:38.735Z,3.38
2018-03-23T04:46:06.174Z,3.26
2018-03-23T04:48:33.637Z,3.14
2018-03-23T04:51:01.081Z,3.24
2018-03-23T04:53:28.541Z,3.44
2018-03-23T04:55:56.046Z,3.17
2018-03-23T04:58:23.505Z,3.14
2018-03-23T05:00:50.957Z,3.22
2018-03-23T05:03:18.457Z,3.30
2018-03-23T05:05:45.897Z,3.43
2018-03-23T05:08:13.367Z,3.38
2018-03-23T05:10:40.819Z,2.90
2018-03-23T05:13:08.284Z,3.21
2018-03-23T05:15:35.729Z,3.00
2018-03-23T05:18:03.181Z,3.02
2018-03-23T05:20:30.630Z,3.33
2018-03-23T05:22:58.113Z,3.37
2018-03-23T05:25:25.630Z,3.31
2018-03-23T05:27:53.087Z,3.31
2018-03-23T05:30:20.601Z,3.09
2018-03-23T05:32:49.121Z,3.08
2018-03-23T05:35:16.583Z,2.95
2018-03-23T05:37:44.021Z,2.95
2018-03-23T05:40:12.386Z,2.89
2018-03-23T05:42:39.826Z,2.87
2018-03-23T05:45:08.225Z,3.36
2018-03-23T05:47:35.705Z,3.29
2018-03-23T05:50:04.176Z,3.05
2018-03-23T05:52:31.634Z,3.14
2018-03-23T05:55:00.120Z,3.07
2018-03-23T05:57:29.493Z,2.91
2018-03-23T05:59:56.959Z,2.95
2018-03-23T06:02:25.321Z,3.13
2018-03-23T06:04:52.778Z,3.46
2018-03-23T06:07:20.230Z,3.24
2018-03-23T06:09:47.685Z,3.47
2018-03-23T06:12:15.126Z,3.87
2018-03-23T06:14:42.647Z,3.87
2018-03-23T06:17:10.985Z,3.44
2018-03-23T06:19:38.445Z,3.68
2018-03-23T06:22:05.901Z,3.77
2018-03-23T06:24:33.369Z,3.68
2018-03-23T06:27:00.809Z,3.88
2018-03-23T06:29:28.277Z,3.86
2018-03-23T06:31:56.653Z,4.27
2018-03-23T06:34:24.123Z,4.43
2018-03-23T06:36:51.565Z,4.41
2018-03-23T06:39:19.025Z,4.10
2018-03-23T06:41:47.365Z,3.91
2018-03-23T06:44:14.826Z,3.81
2018-03-23T06:46:42.274Z,3.81
2018-03-23T06:49:09.786Z,3.80
2018-03-23T06:51:38.236Z,3.83
2018-03-23T06:54:05.680Z,3.92
2018-03-23T06:56:33.107Z,3.99
2018-03-23T06:59:01.564Z,4.07
2018-03-23T07:01:28.986Z,4.01
2018-03-23T07:03:56.437Z,4.26
2018-03-23T07:09:58.023Z,4.09
2018-03-23T07:12:25.461Z,3.94
2018-03-23T07:14:53.895Z,3.49
2018-03-23T07:17:21.358Z,3.80
2018-03-23T07:19:48.813Z,3.69
2018-03-23T07:22:16.253Z,4.03
2018-03-23T07:24:43.714Z,4.01
2018-03-23T07:27:11.161Z,3.86
2018-03-23T07:29:38.623Z,3.90
2018-03-23T07:32:06.068Z,3.78
2018-03-23T07:34:33.539Z,4.03
2018-03-23T07:37:00.991Z,4.08
2018-03-23T07:39:28.457Z,4.39
2018-03-23T07:41:55.913Z,4.27
2018-03-23T07:44:23.377Z,4.25
2018-03-23T07:46:50.824Z,4.23
2018-03-23T07:49:18.293Z,4.24
2018-03-23T07:51:46.746Z,4.36
2018-03-23T07:54:15.108Z,4.11
2018-03-23T07:56:42.563Z,4.10
2018-03-23T07:59:10.018Z,4.01
2018-03-23T08:01:37.469Z,4.27
2018-03-23T08:04:05.034Z,4.14
2018-03-23T08:06:32.488Z,4.43
2018-03-23T08:08:59.948Z,4.34
2018-03-23T08:11:27.497Z,4.21
2018-03-23T08:13:55.031Z,4.31
2018-03-23T08:16:22.531Z,4.63
2018-03-23T08:18:49.989Z,4.83
2018-03-23T08:21:17.437Z,4.47
2018-03-23T08:23:45.895Z,4.41
2018-03-23T08:26:13.332Z,4.76
2018-03-23T08:28:40.789Z,4.73
2018-03-23T08:31:08.236Z,4.88
2018-03-23T08:33:35.727Z,5.23
2018-03-23T08:36:04.086Z,5.23
2018-03-23T08:38:31.566Z,5.52
2018-03-23T08:40:59.008Z,5.56
2018-03-23T08:43:27.380Z,5.76
2018-03-23T08:45:54.831Z,5.94
2018-03-23T08:48:23.230Z,5.26
2018-03-23T08:50:50.772Z,5.38
2018-03-23T08:53:18.254Z,5.54
2018-03-23T08:55:45.705Z,5.67
2018-03-23T08:58:13.161Z,5.61
2018-03-23T09:00:41.524Z,5.64
2018-03-23T09:03:08.989Z,5.38
2018-03-23T09:05:36.436Z,6.07
2018-03-23T09:08:03.909Z,5.77
2018-03-23T09:10:31.377Z,6.27
2018-03-23T09:12:58.841Z,6.40
2018-03-23T09:15:27.342Z,6.64
2018-03-23T09:17:55.818Z,6.47
2018-03-23T09:20:23.353Z,5.95
2018-03-23T09:22:50.813Z,6.18
2018-03-23T09:25:18.265Z,5.52
2018-03-23T09:27:47.661Z,5.80
2018-03-23T09:30:15.106Z,6.26
2018-03-23T09:32:42.576Z,5.94
2018-03-23T09:35:10.037Z,5.63
2018-03-23T09:37:37.505Z,5.62
2018-03-23T09:40:04.956Z,5.75
2018-03-23T09:42:32.441Z,5.57
2018-03-23T09:44:59.902Z,5.84
2018-03-23T09:47:27.370Z,5.66
2018-03-23T09:49:54.818Z,5.85
2018-03-23T09:52:23.244Z,5.86
2018-03-23T09:54:50.702Z,5.81
2018-03-23T09:57:18.202Z,5.82
2018-03-23T09:59:45.666Z,5.83
2018-03-23T10:02:13.110Z,5.46
2018-03-23T10:04:40.592Z,5.99
2018-03-23T10:07:08.033Z,5.99
2018-03-23T10:09:35.485Z,6.32
2018-03-23T10:12:03.841Z,6.69
2018-03-23T10:14:31.325Z,6.71
2018-03-23T10:16:58.801Z,6.54
2018-03-23T10:19:26.266Z,6.69
2018-03-23T10:21:53.711Z,6.14
2018-03-23T10:24:21.186Z,6.40
2018-03-23T10:26:48.678Z,6.52
2018-03-23T10:29:16.146Z,6.28
2018-03-23T10:31:43.593Z,6.26
2018-03-23T10:34:11.060Z,6.44
2018-03-23T10:36:38.510Z,6.06
2018-03-23T10:39:05.977Z,6.49
2018-03-23T10:41:33.437Z,6.68
2018-03-23T10:44:00.929Z,6.74
2018-03-23T10:46:29.313Z,6.28
2018-03-23T10:48:56.803Z,7.34
2018-03-23T10:51:25.249Z,7.41
2018-03-23T10:53:56.465Z,7.74
2018-03-23T10:56:24.875Z,7.30
2018-03-23T10:58:52.347Z,6.68
2018-03-23T11:01:25.340Z,7.06
2018-03-23T11:03:52.809Z,7.61
2018-03-23T11:06:20.253Z,7.35
2018-03-23T11:08:47.713Z,6.40
2018-03-23T11:11:15.166Z,6.26
2018-03-23T11:13:42.630Z,6.36
2018-03-23T11:16:10.090Z,6.88
2018-03-23T11:18:37.558Z,7.10
2018-03-23T11:21:09.473Z,7.15
2018-03-23T11:23:36.939Z,6.89
2018-03-23T11:26:04.411Z,7.19
2018-03-23T11:28:31.889Z,7.20
2018-03-23T11:30:59.358Z,7.30
2018-03-23T11:33:26.832Z,7.23
2018-03-23T11:35:54.282Z,7.46
2018-03-23T11:38:21.776Z,7.91
2018-03-23T11:40:49.246Z,7.93
2018-03-23T11:43:16.714Z,7.53
2018-03-23T11:45:45.090Z,7.69
2018-03-23T11:48:12.554Z,7.77
2018-03-23T11:50:40.055Z,7.57
2018-03-23T11:53:07.501Z,7.83
2018-03-23T11:55:34.956Z,7.87
2018-03-23T11:58:02.430Z,8.50
2018-03-23T12:00:29.944Z,8.09
2018-03-23T12:02:57.365Z,8.32
2018-03-23T12:05:24.827Z,8.55
2018-03-23T12:07:52.297Z,8.73
2018-03-23T12:10:19.772Z,8.66
2018-03-23T12:12:47.234Z,8.36
2018-03-23T12:15:14.693Z,8.38
2018-03-23T12:17:44.191Z,8.56
2018-03-23T12:20:11.656Z,8.35
2018-03-23T12:22:39.134Z,8.95
2018-03-23T12:25:06.597Z,9.21
2018-03-23T12:27:34.057Z,8.11
2018-03-23T12:30:01.507Z,8.62
2018-03-23T12:32:29.003Z,8.67
2018-03-23T12:34:56.493Z,8.71
2018-03-23T12:37:23.961Z,8.91
2018-03-23T12:39:51.425Z,9.31
2018-03-23T12:42:18.907Z,9.32
2018-03-23T12:44:47.301Z,9.10
2018-03-23T12:47:14.757Z,9.20
2018-03-23T12:49:42.198Z,8.74
2018-03-23T12:52:09.702Z,8.91
2018-03-23T12:54:37.161Z,8.98
2018-03-23T12:57:04.612Z,8.66
2018-03-23T12:59:32.119Z,8.80
2018-03-23T13:01:59.569Z,8.58
2018-03-23T13:04:27.013Z,8.26
2018-03-23T13:06:54.493Z,8.77
2018-03-23T13:09:22.034Z,8.56
2018-03-23T13:11:49.485Z,8.39
2018-03-23T13:14:17.913Z,8.50
2018-03-23T13:16:45.559Z,9.29
2018-03-23T13:19:13.022Z,9.47
2018-03-23T13:21:40.471Z,9.08
2018-03-23T13:24:08.893Z,9.61
2018-03-23T13:26:36.362Z,8.87
2018-03-23T13:29:05.966Z,8.70
2018-03-23T13:31:35.441Z,8.97
2018-03-23T13:34:02.903Z,9.65
2018-03-23T13:36:30.341Z,9.38
2018-03-23T13:38:57.834Z,9.19
2018-03-23T13:41:26.277Z,9.16
2018-03-23T13:43:53.768Z,9.71
2018-03-23T13:46:21.213Z,9.60
2018-03-23T13:48:48.661Z,9.22
2018-03-23T13:51:16.141Z,9.25
2018-03-23T13:53:44.606Z,9.90
2018-03-23T13:56:12.132Z,10.56
2018-03-23T13:58:45.280Z,10.40
2018-03-23T14:01:18.381Z,10.86
2018-03-23T14:03:45.853Z,10.68
2018-03-23T14:06:13.300Z,9.67
2018-03-23T14:08:40.761Z,9.23
2018-03-23T14:11:11.353Z,8.84
2018-03-23T14:13:38.875Z,9.36
2018-03-23T14:16:06.329Z,9.58
2018-03-23T14:18:34.749Z,9.26
2018-03-23T14:21:02.215Z,9.52
2018-03-23T14:23:29.699Z,8.75
2018-03-23T14:25:57.151Z,8.29
2018-03-23T14:28:24.651Z,8.11
2018-03-23T14:30:52.130Z,7.93
2018-03-23T14:33:20.609Z,8.14
2018-03-23T14:35:48.077Z,7.66
2018-03-23T14:38:15.537Z,8.00
2018-03-23T14:40:45.020Z,7.77
2018-03-23T14:43:12.499Z,7.97
2018-03-23T14:45:40.954Z,8.18
2018-03-23T14:48:09.442Z,7.85
2018-03-23T14:50:36.940Z,7.70
2018-03-23T14:53:05.322Z,8.08
2018-03-23T14:55:33.753Z,7.55
2018-03-23T14:58:01.246Z,7.67
2018-03-23T15:00:28.712Z,7.95
2018-03-23T15:02:57.162Z,7.77
2018-03-23T15:05:24.661Z,7.58
2018-03-23T15:07:53.082Z,7.80
2018-03-23T15:10:20.544Z,7.41
2018-03-23T15:12:48.013Z,7.40
2018-03-23T15:15:15.466Z,7.45
2018-03-23T15:17:42.964Z,7.48
2018-03-23T15:20:10.416Z,7.51
2018-03-23T15:22:37.887Z,7.67
2018-03-23T15:25:05.349Z,7.50
2018-03-23T15:27:32.919Z,7.63
2018-03-23T15:30:00.369Z,7.89
2018-03-23T15:32:27.839Z,7.58
2018-03-23T15:34:55.356Z,7.77
2018-03-23T15:37:23.713Z,7.98
2018-03-23T15:39:51.173Z,7.90
2018-03-23T15:42:18.649Z,7.77
2018-03-23T15:44:46.113Z,7.52
2018-03-23T15:47:13.600Z,7.46
2018-03-23T15:49:41.075Z,7.40
2018-03-23T15:52:08.566Z,7.61
2018-03-23T15:54:36.028Z,7.68
2018-03-23T15:57:03.490Z,7.78
2018-03-23T15:59:30.954Z,7.53
2018-03-23T16:01:58.515Z,7.55
2018-03-23T16:04:25.936Z,7.53
2018-03-23T16:06:54.301Z,7.26
2018-03-23T16:09:21.769Z,7.30
2018-03-23T16:11:50.222Z,7.14
2018-03-23T16:14:17.695Z,7.42
2018-03-23T16:16:45.145Z,7.34
2018-03-23T16:19:12.610Z,7.36
2018-03-23T16:21:40.073Z,7.25
2018-03-23T16:24:07.541Z,7.37
2018-03-23T16:26:35.945Z,7.49
2018-03-23T16:29:03.426Z,7.51
2018-03-23T16:31:32.847Z,7.54
2018-03-23T16:34:04.365Z,7.43
2018-03-23T16:36:31.834Z,7.40
2018-03-23T16:38:59.298Z,7.36
2018-03-23T16:41:26.808Z,7.26
2018-03-23T16:43:54.301Z,7.05
2018-03-23T16:46:21.761Z,6.89
2018-03-23T16:48:49.230Z,7.04
2018-03-23T16:51:17.403Z,7.03
2018-03-23T16:53:44.933Z,7.20
2018-03-23T16:56:12.426Z,7.26
2018-03-23T16:58:39.907Z,7.27
2018-03-23T17:01:07.348Z,7.31
2018-03-23T17:03:34.821Z,7.42
2018-03-23T17:06:02.266Z,7.26
2018-03-23T17:08:30.652Z,7.17
2018-03-23T17:10:58.106Z,7.16
2018-03-23T17:13:25.572Z,7.04
2018-03-23T17:15:54.031Z,7.07
2018-03-23T17:18:21.514Z,6.98
2018-03-23T17:20:49.018Z,7.07
2018-03-23T17:23:16.518Z,7.07
2018-03-23T17:25:44.881Z,7.16
2018-03-23T17:28:12.462Z,7.20
2018-03-23T17:30:40.147Z,6.99
2018-03-23T17:33:07.638Z,6.98
2018-03-23T17:35:35.121Z,7.08
2018-03-23T17:38:02.611Z,7.00
2018-03-23T17:40:31.118Z,6.94
2018-03-23T17:42:58.624Z,6.85
2018-03-23T17:45:26.344Z,6.93
2018-03-23T17:47:53.885Z,6.92
2018-03-23T17:50:21.391Z,6.82
2018-03-23T17:52:48.872Z,6.75
2018-03-23T17:55:16.385Z,6.67
2018-03-23T17:57:43.847Z,6.56
2018-03-23T18:00:11.364Z,6.50
2018-03-23T18:02:38.917Z,6.53
2018-03-23T18:05:06.380Z,6.58
2018-03-23T18:07:33.877Z,6.53
2018-03-23T18:10:01.373Z,6.39
2018-03-23T18:12:29.850Z,6.54
2018-03-23T18:14:57.314Z,6.62
2018-03-23T18:17:24.808Z,6.67
2018-03-23T18:19:52.436Z,6.60
2018-03-23T18:22:19.906Z,6.38
2018-03-23T18:24:47.391Z,6.17
2018-03-23T18:27:14.864Z,6.16
2018-03-23T18:29:42.342Z,6.18
2018-03-23T18:32:10.766Z,6.29
2018-03-23T18:34:38.239Z,6.19
2018-03-23T18:37:05.705Z,6.07
2018-03-23T18:39:33.172Z,5.92
2018-03-23T18:42:02.635Z,5.94
2018-03-23T18:44:30.091Z,6.08
2018-03-23T18:46:57.765Z,6.03
2018-03-23T18:49:25.220Z,5.87
2018-03-23T18:51:52.695Z,5.78
2018-03-23T18:54:20.149Z,5.92
2018-03-23T18:56:47.625Z,5.98
2018-03-23T18:59:15.106Z,6.04
2018-03-23T19:01:42.585Z,5.97
2018-03-23T19:04:10.028Z,5.91
2018-03-23T19:06:37.515Z,5.85
2018-03-23T19:09:04.976Z,5.81
2018-03-23T19:11:32.447Z,5.81
2018-03-23T19:14:00.894Z,5.86
2018-03-23T19:16:29.287Z,5.93
2018-03-23T19:18:56.746Z,6.08
2018-03-23T19:21:24.214Z,5.88
2018-03-23T19:23:51.686Z,5.96
2018-03-23T19:26:19.228Z,6.08
2018-03-23T19:28:46.747Z,6.06
2018-03-23T19:31:14.171Z,6.11
2018-03-23T19:33:41.625Z,5.94
2018-03-23T19:36:09.121Z,5.89
2018-03-23T19:38:36.581Z,5.97
2018-03-23T19:41:04.041Z,5.97
2018-03-23T19:43:31.493Z,6.01
2018-03-23T19:45:58.982Z,6.11
2018-03-23T19:48:27.432Z,6.02
2018-03-23T19:50:54.922Z,5.94
2018-03-23T19:53:22.401Z,5.74
2018-03-23T19:55:49.884Z,5.80
2018-03-23T19:58:18.281Z,5.82
2018-03-23T20:00:45.771Z,5.84
2018-03-23T20:03:13.246Z,5.84
2018-03-23T20:05:40.728Z,5.82
2018-03-23T20:08:08.201Z,5.78
2018-03-23T20:10:36.658Z,5.82
2018-03-23T20:13:04.115Z,5.81
2018-03-23T20:15:31.573Z,5.63
2018-03-23T20:18:04.787Z,5.73
2018-03-23T20:23:35.145Z,5.58
2018-03-23T20:26:02.635Z,5.53
2018-03-23T20:28:35.702Z,5.64
2018-03-23T20:31:03.441Z,5.66
2018-03-23T20:33:30.905Z,5.68
2018-03-23T20:35:58.381Z,5.62
2018-03-23T20:38:25.846Z,5.78
2018-03-23T20:40:53.349Z,5.76
2018-03-23T20:43:20.816Z,5.57
2018-03-23T20:45:48.279Z,5.67
2018-03-23T20:48:15.779Z,5.54
2018-03-23T20:50:43.235Z,5.68
2018-03-23T20:53:10.706Z,5.67
2018-03-23T20:55:38.269Z,5.71
2018-03-23T20:58:05.745Z,5.72
2018-03-23T21:00:33.217Z,5.77
2018-03-23T21:03:00.730Z,5.73
2018-03-23T21:05:29.242Z,5.64
2018-03-23T21:07:56.729Z,5.77
2018-03-23T21:10:24.207Z,5.68
2018-03-23T21:12:51.677Z,5.73
2018-03-23T21:15:20.163Z,5.69
2018-03-23T21:17:47.656Z,5.63
2018-03-23T21:20:15.113Z,5.69
2018-03-23T21:22:42.582Z,5.74
2018-03-23T21:25:10.039Z,5.86
2018-03-23T21:27:37.517Z,5.80
2018-03-23T21:30:04.979Z,5.81
2018-03-23T21:32:35.866Z,5.79
2018-03-23T21:35:03.342Z,5.73
2018-03-23T21:37:30.838Z,5.71
2018-03-23T21:39:58.389Z,5.67
2018-03-23T21:42:25.915Z,5.78
2018-03-23T21:44:53.375Z,5.67
2018-03-23T21:47:20.881Z,5.65
2018-03-23T21:49:48.353Z,5.75
2018-03-23T21:52:15.878Z,5.65
2018-03-23T21:54:43.372Z,5.69
2018-03-23T21:57:10.820Z,5.93
2018-03-23T21:59:39.299Z,5.82
2018-03-23T22:02:06.766Z,5.81
2018-03-23T22:04:34.234Z,5.86
2018-03-23T22:07:02.673Z,5.91
2018-03-23T22:09:30.246Z,6.11
2018-03-23T22:11:57.809Z,6.19
2018-03-23T22:14:25.893Z,6.14
2018-03-23T22:16:53.398Z,6.00
2018-03-23T22:19:20.961Z,5.84
2018-03-23T22:21:48.487Z,5.80
2018-03-23T22:24:15.974Z,5.80
2018-03-23T22:26:43.441Z,5.79
2018-03-23T22:29:11.842Z,5.57
2018-03-23T22:31:39.314Z,5.62
2018-03-23T22:34:06.813Z,5.53
2018-03-23T22:36:34.333Z,5.62
2018-03-23T22:39:02.086Z,5.48
2018-03-23T22:41:29.686Z,5.36
2018-03-23T22:43:57.173Z,5.45
2018-03-23T22:46:24.643Z,5.45
2018-03-23T22:48:52.121Z,5.65
2018-03-23T22:51:19.596Z,5.55
2018-03-23T22:53:47.089Z,5.50
2018-03-23T22:56:14.570Z,5.42
2018-03-23T22:58:42.066Z,5.41
2018-03-23T23:01:09.554Z,5.50
2018-03-23T23:03:39.031Z,5.39
2018-03-23T23:06:06.515Z,5.51
2018-03-23T23:08:33.990Z,5.51
2018-03-23T23:11:01.449Z,5.57
2018-03-23T23:13:28.927Z,5.49
2018-03-23T23:15:56.392Z,5.36
2018-03-23T23:18:23.861Z,5.48
2018-03-23T23:20:51.336Z,5.41
2018-03-23T23:23:18.807Z,5.33
2018-03-23T23:25:46.286Z,5.43
2018-03-23T23:28:13.774Z,5.27
2018-03-23T23:30:41.298Z,5.37
2018-03-23T23:33:08.771Z,5.13
2018-03-23T23:35:36.294Z,5.21
2018-03-23T23:38:03.774Z,5.28
2018-03-23T23:40:31.221Z,5.26
2018-03-23T23:42:58.700Z,5.31
2018-03-23T23:45:26.227Z,5.25
2018-03-23T23:47:53.696Z,5.30
2018-03-23T23:50:21.177Z,5.13
2018-03-23T23:52:48.640Z,5.24
2018-03-23T23:55:16.097Z,5.23
2018-03-23T23:57:43.573Z,5.27
